Aviation Digital Data Service (ADDS)

Output produced by METARs form (1358 UTC 22 April 2019)
found at http://www.aviationweather.gov/metar/data/
 
Forecast for: VEBI (SHILLONG , IN)
Text: TAF VEBI 220800Z 2209/2218 05003KT 6000 FEW018 SCT100
Forecast period: 0900 to 1300 UTC 22 April 2019
Forecast type: FROM: standard forecast or significant change
Winds: from the NE (50 degrees) at 3 MPH (3 knots; 1.5 m/s)
Visibility: 4 miles (6 km)
Ceiling: at least 12,000 feet AGL
Clouds: few clouds at 1800 feet AGL
scattered clouds at 10000 feet AGL
Weather: no significant weather forecast for this period
Text: BECMG 2213/2215 00000KT 3000 -RA BR SCT018 FEW025CB BKN090
Forecast period: 1300 to 1800 UTC 22 April 2019
Forecast type: BECOMING: Conditions expected to become as follows by 1500 UTC 22 April 2019
Winds: calm
Visibility: 1.86 miles (2.99 km)
Ceiling: 9000 feet AGL
Clouds: scattered clouds at 1800 feet AGL
few clouds at 2500 feet AGL
broken clouds at 9000 feet AGL
Weather: -RA BR  (light rain, mist)